Time;durP1;ratioP1;P1;durP2;ratioP2;P2;SDS_P1;SDS_P2;PMS_P1;PMS_P2;Temp;Humidity;BMP_temperature;BMP_pressure;BME280_temperature;BME280_humidity;BME280_pressure;Samples;Min_cycle;Max_cycle;Signal;HPM_P1;HPM_P2
2023/09/21 00:00:15;;;;;;;3.03;1.10;;;;;;;17.28;73.11;98489.34;334318;28;18195;-66
2023/09/21 00:00:27;;;;;;;0.70;0.57;;;;;;;17.29;72.93;98500.72;332567;28;17460;-66
2023/09/21 00:00:41;;;;;;;0.88;0.70;;;;;;;17.29;72.89;98500.72;330454;28;18122;-66
2023/09/21 00:01:06;;;;;;;1.15;0.80;;;;;;;17.28;72.94;98499.03;335519;28;12065;-66
2023/09/21 00:01:19;;;;;;;1.33;0.80;;;;;;;17.27;73.16;98497.38;335940;28;17706;-67
2023/09/21 00:01:33;;;;;;;1.30;0.80;;;;;;;17.27;72.97;98503.44;338426;28;5161;-66
2023/09/21 00:01:45;;;;;;;1.08;0.68;;;;;;;17.27;73.00;98497.38;334756;28;18268;-66
2023/09/21 00:01:57;;;;;;;0.82;0.70;;;;;;;17.27;72.97;98498.19;337514;28;4661;-66
2023/09/21 00:02:12;;;;;;;1.08;0.80;;;;;;;17.26;72.87;98495.69;334542;28;13920;-66
2023/09/21 00:02:26;;;;;;;1.70;1.00;;;;;;;17.24;73.00;98497.59;335408;28;14056;-66
2023/09/21 00:02:49;;;;;;;1.92;0.95;;;;;;;17.24;72.97;98494.97;337543;28;5389;-66
2023/09/21 00:03:02;;;;;;;2.28;1.00;;;;;;;17.24;73.24;98489.72;336404;28;17575;-66
2023/09/21 00:03:14;;;;;;;1.50;0.80;;;;;;;17.25;73.26;98494.03;336316;28;11584;-67
2023/09/21 00:03:30;;;;;;;1.55;0.90;;;;;;;17.24;73.14;98492.34;339816;28;4645;-66
2023/09/21 00:03:44;;;;;;;1.48;0.88;;;;;;;17.23;73.27;98495.94;335905;28;18382;-66
2023/09/21 00:03:56;;;;;;;1.50;0.80;;;;;;;17.22;73.30;98494.25;335248;28;18102;-66
2023/09/21 00:04:09;;;;;;;1.40;0.75;;;;;;;17.23;73.27;98501.19;338485;28;5348;-66
2023/09/21 00:04:21;;;;;;;0.90;0.68;;;;;;;17.24;73.21;98497.59;337146;28;18163;-66
2023/09/21 00:04:34;;;;;;;1.23;0.70;;;;;;;17.23;73.02;98499.41;339106;28;5376;-66
2023/09/21 00:04:46;;;;;;;1.58;0.82;;;;;;;17.22;72.98;98494.25;334899;28;18181;-66
2023/09/21 00:04:58;;;;;;;2.20;0.85;;;;;;;17.21;73.11;98495.22;337562;28;4894;-66
2023/09/21 00:05:10;;;;;;;2.97;0.88;;;;;;;17.22;73.12;98499.50;330082;28;5148;-67
2023/09/21 00:05:24;;;;;;;1.88;0.70;;;;;;;17.21;73.22;98482.94;337226;28;4737;-66
2023/09/21 00:05:39;;;;;;;0.80;0.70;;;;;;;17.21;73.25;98496.06;335188;28;18125;-66
2023/09/21 00:05:52;;;;;;;0.88;0.60;;;;;;;17.22;73.27;98494.25;335317;28;17791;-66
2023/09/21 00:06:05;;;;;;;1.10;0.70;;;;;;;17.21;73.31;98492.59;336457;28;5182;-66
2023/09/21 00:06:17;;;;;;;1.10;0.70;;;;;;;17.21;73.23;98492.59;335073;28;19183;-66
2023/09/21 00:06:30;;;;;;;1.08;0.70;;;;;;;17.20;73.15;98504.06;338213;28;11376;-66
2023/09/21 00:06:43;;;;;;;0.93;0.70;;;;;;;17.20;72.85;98496.16;335181;28;18440;-66
2023/09/21 00:06:55;;;;;;;0.80;0.60;;;;;;;17.19;73.12;98491.88;337762;28;4697;-66
2023/09/21 00:07:07;;;;;;;0.60;0.50;;;;;;;17.20;73.18;98493.53;329395;28;10881;-66
2023/09/21 00:07:19;;;;;;;1.35;0.50;;;;;;;17.21;73.22;98492.59;337146;28;4742;-66
2023/09/21 00:07:31;;;;;;;2.50;0.80;;;;;;;17.20;73.14;98494.38;335419;28;5172;-66
2023/09/21 00:07:43;;;;;;;2.72;0.90;;;;;;;17.19;73.05;98490.09;335677;28;17472;-66
2023/09/21 00:07:57;;;;;;;1.70;0.75;;;;;;;17.20;73.08;98493.53;337016;28;4730;-66
2023/09/21 00:08:09;;;;;;;2.20;0.90;;;;;;;17.17;72.99;98492.00;329215;28;18416;-66
2023/09/21 00:08:25;;;;;;;1.80;1.00;;;;;;;17.12;73.47;98487.13;336125;28;13245;-66
2023/09/21 00:08:37;;;;;;;1.60;0.80;;;;;;;17.11;73.75;98495.13;334710;28;18017;-67
2023/09/21 00:08:49;;;;;;;1.60;0.80;;;;;;;17.08;74.16;98495.34;336786;28;4700;-66
2023/09/21 00:09:03;;;;;;;1.20;0.82;;;;;;;17.08;74.09;98492.72;335275;28;18003;-66
2023/09/21 00:09:15;;;;;;;1.17;0.80;;;;;;;17.09;73.68;98500.47;336314;28;6356;-66
2023/09/21 00:09:28;;;;;;;1.23;0.80;;;;;;;17.11;73.52;98501.19;334724;28;11666;-66
2023/09/21 00:09:40;;;;;;;1.00;0.70;;;;;;;17.12;73.40;98495.00;333396;28;4715;-66
2023/09/21 00:09:52;;;;;;;1.00;0.80;;;;;;;17.11;73.68;98490.69;337794;28;4672;-66
2023/09/21 00:10:06;;;;;;;1.00;0.80;;;;;;;17.09;73.79;98497.84;335458;28;18127;-66
2023/09/21 00:10:18;;;;;;;1.27;0.73;;;;;;;17.08;73.82;98492.72;334318;28;19102;-66
2023/09/21 00:10:32;;;;;;;1.33;0.70;;;;;;;17.04;74.10;98499.97;338133;28;4737;-66
2023/09/21 00:10:46;;;;;;;1.23;0.70;;;;;;;17.03;74.06;98493.06;336143;28;18185;-66
2023/09/21 00:10:58;;;;;;;1.48;0.90;;;;;;;17.01;74.00;98497.63;338649;28;17968;-66
2023/09/21 00:11:10;;;;;;;1.30;0.90;;;;;;;17.03;74.31;98495.69;335054;28;18445;-66
2023/09/21 00:11:23;;;;;;;2.42;1.02;;;;;;;17.04;73.88;98497.34;333361;28;4689;-66
2023/09/21 00:11:37;;;;;;;2.17;0.90;;;;;;;17.05;74.06;98493.78;335171;28;18275;-66
2023/09/21 00:11:49;;;;;;;1.67;0.85;;;;;;;17.05;74.48;98501.66;336213;28;11883;-66
2023/09/21 00:12:02;;;;;;;2.72;0.90;;;;;;;17.08;74.36;98490.94;335949;28;5451;-66
2023/09/21 00:12:14;;;;;;;1.95;0.73;;;;;;;17.10;74.43;98496.06;334957;28;18067;-66
2023/09/21 00:12:26;;;;;;;1.10;0.65;;;;;;;17.11;74.42;98497.75;337115;28;5439;-66
2023/09/21 00:12:39;;;;;;;1.20;0.70;;;;;;;17.13;74.16;98495.81;337332;28;4669;-66
2023/09/21 00:12:51;;;;;;;1.40;0.70;;;;;;;17.11;74.51;98495.94;335105;28;18277;-66
2023/09/21 00:13:04;;;;;;;1.73;0.70;;;;;;;17.12;74.58;98494.13;337743;28;4856;-66
2023/09/21 00:13:17;;;;;;;1.80;0.70;;;;;;;17.15;74.40;98499.16;332297;28;19113;-66
2023/09/21 00:13:31;;;;;;;1.05;0.70;;;;;;;17.17;74.20;98490.22;333423;28;16639;-67
2023/09/21 00:13:43;;;;;;;0.90;0.70;;;;;;;17.19;74.16;98489.25;337639;28;4690;-66
2023/09/21 00:13:55;;;;;;;1.00;0.65;;;;;;;17.22;74.02;98494.25;333558;28;18651;-67
2023/09/21 00:14:08;;;;;;;0.88;0.68;;;;;;;17.24;73.91;98489.72;336806;28;4702;-66
2023/09/21 00:14:21;;;;;;;0.85;0.70;;;;;;;17.24;74.03;98487.09;335737;28;18334;-66
2023/09/21 00:14:35;;;;;;;1.10;0.70;;;;;;;17.26;73.92;98487.81;333600;28;5311;-66
2023/09/21 00:14:48;;;;;;;1.25;0.77;;;;;;;17.28;74.03;98488.53;335890;28;18222;-66
2023/09/21 00:15:29;;;;;;;1.13;0.80;;;;;;;17.30;73.97;98492.69;336289;28;11746;-66
2023/09/21 00:15:40;;;;;;;1.10;0.90;;;;;;;17.33;73.86;98491.63;332825;28;17744;-66
2023/09/21 00:15:53;;;;;;;1.33;1.00;;;;;;;17.33;73.94;98489.84;329682;28;18401;-66
2023/09/21 00:16:11;;;;;;;1.00;0.80;;;;;;;17.36;73.79;98491.38;335231;28;17025;-67
2023/09/21 00:16:27;;;;;;;1.20;0.70;;;;;;;17.35;74.15;98484.47;334451;28;17693;-66
2023/09/21 00:16:40;;;;;;;1.38;0.73;;;;;;;17.33;74.33;98481.13;334879;28;17543;-66
2023/09/21 00:16:53;;;;;;;2.00;0.88;;;;;;;17.32;74.18;98488.16;335255;28;18188;-66
2023/09/21 00:17:05;;;;;;;4.15;1.10;;;;;;;17.31;74.60;98483.03;337405;28;18452;-66
2023/09/21 00:17:17;;;;;;;4.13;0.98;;;;;;;17.33;74.23;98489.00;335864;28;18532;-66
2023/09/21 00:17:32;;;;;;;1.45;0.73;;;;;;;17.35;74.06;98487.09;334411;28;4705;-66
2023/09/21 00:17:49;;;;;;;0.85;0.70;;;;;;;17.36;74.12;98491.38;333888;28;18210;-66
2023/09/21 00:18:05;;;;;;;1.10;0.80;;;;;;;17.35;74.08;98485.31;334309;28;17642;-66
2023/09/21 00:18:20;;;;;;;2.10;0.90;;;;;;;17.35;73.78;98489.72;334071;28;17900;-67
2023/09/21 00:18:34;;;;;;;2.08;0.93;;;;;;;17.36;73.88;98489.59;334150;28;18059;-66
2023/09/21 00:18:47;;;;;;;1.80;1.00;;;;;;;17.37;73.58;98487.81;337295;28;17993;-66
2023/09/21 00:19:06;;;;;;;2.03;1.00;;;;;;;17.36;74.56;98494.00;329670;28;18092;-66
2023/09/21 00:19:21;;;;;;;1.60;1.02;;;;;;;17.33;74.69;98487.22;335356;28;17912;-66
2023/09/21 00:19:33;;;;;;;1.20;0.90;;;;;;;17.36;74.41;98486.13;334275;28;18162;-66
2023/09/21 00:19:45;;;;;;;0.85;0.70;;;;;;;17.36;74.46;98491.38;337534;28;4820;-66
2023/09/21 00:19:57;;;;;;;0.88;0.68;;;;;;;17.35;74.68;98489.72;335256;28;16780;-67
2023/09/21 00:20:56;;;;;;;2.20;1.00;;;;;;;17.37;74.36;98485.19;328436;29;17538;-66
2023/09/21 00:21:08;;;;;;;1.90;0.90;;;;;;;17.38;74.24;98478.97;328491;29;17797;-66
2023/09/21 00:21:22;;;;;;;1.60;0.90;;;;;;;17.40;74.19;98482.28;336010;28;6595;-66
2023/09/21 00:21:34;;;;;;;1.10;0.80;;;;;;;17.41;74.23;98478.72;335183;28;18276;-66
2023/09/21 00:21:46;;;;;;;1.10;0.75;;;;;;;17.42;73.97;98474.31;338313;28;4982;-66
2023/09/21 00:21:58;;;;;;;1.17;0.70;;;;;;;17.44;73.98;98477.63;331765;28;5069;-67
2023/09/21 00:22:12;;;;;;;1.88;0.70;;;;;;;17.44;73.61;98488.97;338664;28;5655;-67
2023/09/21 00:22:27;;;;;;;1.85;0.77;;;;;;;17.44;73.85;98475.84;336149;28;19040;-66
2023/09/21 00:22:41;;;;;;;1.23;0.80;;;;;;;17.46;73.83;98476.56;334951;28;18083;-66
2023/09/21 00:22:54;;;;;;;1.20;0.77;;;;;;;17.45;73.70;98480.16;334322;28;12398;-67
2023/09/21 00:23:07;;;;;;;1.15;0.80;;;;;;;17.47;73.86;98472.16;336917;28;4577;-66
2023/09/21 00:23:21;;;;;;;1.48;1.00;;;;;;;17.48;73.66;98479.91;335348;28;5150;-66
2023/09/21 00:23:33;;;;;;;1.52;1.00;;;;;;;17.48;73.63;98479.06;338269;28;4556;-66
2023/09/21 00:23:47;;;;;;;1.52;0.85;;;;;;;17.49;73.54;98471.06;334831;28;18189;-66
2023/09/21 00:24:15;;;;;;;3.13;0.77;;;;;;;17.49;73.50;98476.31;335149;28;18021;-67
2023/09/21 00:24:30;;;;;;;3.00;0.93;;;;;;;17.54;73.40;98473.31;335275;28;17669;-66
2023/09/21 00:24:42;;;;;;;2.50;0.80;;;;;;;17.54;73.47;98470.69;333587;29;18903;-66
2023/09/21 00:24:54;;;;;;;1.63;0.70;;;;;;;17.53;73.32;98467.25;334225;28;4707;-67
2023/09/21 00:25:07;;;;;;;2.28;0.80;;;;;;;17.55;73.65;98473.19;337467;28;4692;-67
2023/09/21 00:25:22;;;;;;;3.30;0.90;;;;;;;17.56;73.29;98468.78;335230;28;12748;-66
2023/09/21 00:25:36;;;;;;;2.25;0.80;;;;;;;17.56;73.47;98472.22;335166;28;12726;-67
2023/09/21 00:25:48;;;;;;;1.20;0.90;;;;;;;17.55;73.38;98470.56;337716;28;4666;-66
2023/09/21 00:26:00;;;;;;;1.08;0.95;;;;;;;17.56;73.50;98477.47;335356;28;18067;-66
2023/09/21 00:26:14;;;;;;;1.35;1.10;;;;;;;17.56;73.47;98472.22;337473;28;5180;-66
2023/09/21 00:26:27;;;;;;;1.48;1.15;;;;;;;17.56;73.39;98469.59;331294;28;18242;-67
2023/09/21 00:26:40;;;;;;;1.95;1.10;;;;;;;17.56;73.38;98472.22;337513;28;4686;-66
2023/09/21 00:26:52;;;;;;;1.63;0.90;;;;;;;17.55;73.55;98470.56;334900;28;18220;-66
2023/09/21 00:27:07;;;;;;;1.45;0.93;;;;;;;17.55;73.65;98465.31;336845;28;5564;-66
2023/09/21 00:27:19;;;;;;;2.25;0.95;;;;;;;17.55;73.66;98470.56;335467;28;18037;-66
2023/09/21 00:27:31;;;;;;;2.28;0.80;;;;;;;17.56;73.40;98471.41;335986;28;18271;-66
2023/09/21 00:27:44;;;;;;;1.58;0.80;;;;;;;17.57;73.47;98473.91;337156;28;4673;-66
2023/09/21 00:27:56;;;;;;;2.10;1.00;;;;;;;17.57;73.22;98468.66;334544;28;6226;-67
2023/09/21 00:28:08;;;;;;;1.90;1.08;;;;;;;17.59;73.37;98471.16;332621;28;5533;-66
2023/09/21 00:28:21;;;;;;;1.50;1.00;;;;;;;17.60;73.39;98472.00;338046;28;5191;-66
2023/09/21 00:28:35;;;;;;;1.52;1.00;;;;;;;17.61;73.30;98466.63;335773;28;18498;-66
2023/09/21 00:28:50;;;;;;;1.80;1.00;;;;;;;17.61;73.09;98469.25;335340;28;17844;-67
2023/09/21 00:29:03;;;;;;;1.48;1.00;;;;;;;17.62;73.34;98470.09;335146;28;18220;-66
2023/09/21 00:29:16;;;;;;;0.90;0.80;;;;;;;17.62;73.28;98470.91;337895;28;5198;-66
2023/09/21 00:29:29;;;;;;;1.30;0.80;;;;;;;17.63;73.19;98474.41;336212;28;18623;-67
2023/09/21 00:29:41;;;;;;;1.60;0.88;;;;;;;17.64;73.27;98468.16;333197;28;5291;-66
2023/09/21 00:29:53;;;;;;;1.83;0.90;;;;;;;17.65;72.93;98475.09;331941;28;18397;-66
2023/09/21 00:30:05;;;;;;;1.55;0.90;;;;;;;17.65;72.91;98475.09;337572;28;7832;-66
2023/09/21 00:30:18;;;;;;;1.90;0.90;;;;;;;17.64;72.97;98465.53;334836;28;17846;-66
2023/09/21 00:30:30;;;;;;;1.70;0.77;;;;;;;17.67;72.90;98473.19;337344;28;7703;-66
2023/09/21 00:30:42;;;;;;;1.42;0.80;;;;;;;17.66;73.07;98476.75;337026;28;12915;-66
2023/09/21 00:31:02;;;;;;;3.17;0.77;;;;;;;17.67;73.11;98467.94;335444;28;17978;-66
2023/09/21 00:31:14;;;;;;;2.78;0.80;;;;;;;17.65;73.22;98467.22;330292;28;18781;-66
2023/09/21 00:31:29;;;;;;;1.00;0.80;;;;;;;17.63;73.26;98467.34;338476;28;5596;-66
2023/09/21 00:31:41;;;;;;;1.03;0.80;;;;;;;17.63;73.13;98471.75;335298;28;17810;-66
2023/09/21 00:31:53;;;;;;;1.00;0.80;;;;;;;17.64;73.03;98470.78;334615;28;12337;-67
2023/09/21 00:32:05;;;;;;;1.25;0.80;;;;;;;17.62;73.47;98468.28;337759;28;4638;-66
2023/09/21 00:32:17;;;;;;;1.20;0.80;;;;;;;17.65;73.62;98470.69;338364;28;4665;-66
2023/09/21 00:32:30;;;;;;;1.08;0.80;;;;;;;17.68;73.35;98474.84;336325;28;18220;-66
2023/09/21 00:32:42;;;;;;;1.02;0.73;;;;;;;17.68;73.09;98472.22;332557;28;5609;-66
2023/09/21 00:32:54;;;;;;;1.42;0.75;;;;;;;17.68;73.43;98466.97;333551;28;17984;-67
2023/09/21 00:33:07;;;;;;;1.30;0.70;;;;;;;17.70;73.38;98467.66;337685;28;5154;-66
2023/09/21 00:33:20;;;;;;;1.48;0.63;;;;;;;17.71;73.31;98474.59;335353;28;18271;-66
2023/09/21 00:33:33;;;;;;;1.73;0.80;;;;;;;17.70;73.20;98472.91;338469;28;4685;-66
2023/09/21 00:33:45;;;;;;;1.55;0.85;;;;;;;17.71;73.01;98471.97;335798;28;18151;-66
2023/09/21 00:33:58;;;;;;;1.00;0.80;;;;;;;17.72;73.04;98471.00;337863;28;5463;-66
2023/09/21 00:34:10;;;;;;;0.82;0.80;;;;;;;17.70;73.04;98472.91;335594;28;18288;-67
2023/09/21 00:34:22;;;;;;;0.88;0.80;;;;;;;17.68;73.09;98469.59;338745;28;4757;-66
2023/09/21 00:34:34;;;;;;;1.10;0.70;;;;;;;17.68;73.03;98470.41;336170;28;19701;-66
2023/09/21 00:34:52;;;;;;;1.13;0.70;;;;;;;17.67;73.21;98465.31;338376;28;5590;-66
2023/09/21 00:35:09;;;;;;;1.00;0.70;;;;;;;17.63;73.74;98471.75;337441;28;17658;-66
2023/09/21 00:35:25;;;;;;;1.35;0.80;;;;;;;17.64;73.39;98469.00;336922;28;17836;-66
2023/09/21 00:35:39;;;;;;;1.08;0.70;;;;;;;17.67;73.06;98467.94;335557;28;19323;-66
2023/09/21 00:35:52;;;;;;;0.75;0.65;;;;;;;17.64;72.98;98468.16;334147;28;17975;-66
2023/09/21 00:36:04;;;;;;;1.00;0.80;;;;;;;17.62;73.29;98465.66;337793;28;5501;-66
2023/09/21 00:36:17;;;;;;;1.17;0.90;;;;;;;17.60;73.18;98467.56;335533;28;19075;-66
2023/09/21 00:36:30;;;;;;;1.80;0.80;;;;;;;17.58;73.55;98469.50;335338;28;4678;-66
2023/09/21 00:36:45;;;;;;;2.35;0.77;;;;;;;17.55;73.91;98465.31;336415;28;4575;-67
2023/09/21 00:36:57;;;;;;;1.50;0.80;;;;;;;17.55;73.68;98469.75;333803;28;17952;-66
2023/09/21 00:37:11;;;;;;;1.55;0.90;;;;;;;17.54;73.79;98463.63;332072;28;4548;-66
2023/09/21 00:37:27;;;;;;;1.35;1.00;;;;;;;17.53;73.87;98467.25;333499;28;18126;-66
2023/09/21 00:37:40;;;;;;;1.45;0.98;;;;;;;17.54;73.64;98468.88;335175;28;17992;-66
2023/09/21 00:37:52;;;;;;;1.23;0.85;;;;;;;17.55;73.83;98465.31;335456;28;18453;-66
2023/09/21 00:38:07;;;;;;;1.13;0.90;;;;;;;17.58;73.74;98470.31;336749;28;4757;-66
2023/09/21 00:38:20;;;;;;;1.25;0.98;;;;;;;17.60;73.95;98461.50;333072;28;17931;-66
2023/09/21 00:38:33;;;;;;;1.38;0.93;;;;;;;17.60;73.94;98459.69;334150;28;18094;-66
2023/09/21 00:38:46;;;;;;;1.88;1.02;;;;;;;17.61;73.73;98457.91;333032;28;5486;-66
2023/09/21 00:38:59;;;;;;;1.73;0.90;;;;;;;17.61;73.27;98463.16;335137;28;18058;-66
2023/09/21 00:39:12;;;;;;;1.05;0.80;;;;;;;17.62;73.29;98462.19;334897;28;17829;-67
2023/09/21 00:39:24;;;;;;;1.40;0.93;;;;;;;17.63;73.34;98461.25;337633;28;5336;-66
2023/09/21 00:39:36;;;;;;;2.08;0.80;;;;;;;17.65;73.29;98461.97;334863;28;18391;-66
2023/09/21 00:39:49;;;;;;;1.90;0.70;;;;;;;17.66;73.33;98467.06;337237;28;5577;-66
2023/09/21 00:40:05;;;;;;;1.42;0.70;;;;;;;17.67;73.13;98462.69;334530;28;12133;-66
2023/09/21 00:40:17;;;;;;;1.00;0.70;;;;;;;17.68;73.23;98459.06;335448;28;19042;-66
2023/09/21 00:40:30;;;;;;;1.00;0.70;;;;;;;17.69;73.33;98455.50;338368;28;4793;-66
2023/09/21 00:40:42;;;;;;;1.38;0.90;;;;;;;17.68;73.73;98459.91;334810;28;17991;-67
2023/09/21 00:41:02;;;;;;;1.52;1.00;;;;;;;17.69;73.66;98461.59;335027;28;18046;-66
2023/09/21 00:41:14;;;;;;;3.17;0.90;;;;;;;17.69;73.42;98458.13;334813;28;17696;-66
2023/09/21 00:41:26;;;;;;;4.05;0.80;;;;;;;17.69;73.42;98463.38;337037;28;12122;-66
2023/09/21 00:41:38;;;;;;;4.07;0.80;;;;;;;17.68;73.56;98461.69;334592;28;12351;-67
2023/09/21 00:41:50;;;;;;;2.20;0.70;;;;;;;17.69;73.56;98460.75;337667;28;5544;-66
2023/09/21 00:42:03;;;;;;;1.08;0.70;;;;;;;17.70;73.36;98462.41;334997;28;16558;-66
2023/09/21 00:42:15;;;;;;;1.23;0.77;;;;;;;17.71;73.56;98464.09;337985;28;5806;-66
2023/09/21 00:42:28;;;;;;;1.70;0.90;;;;;;;17.70;73.44;98457.16;336162;28;13308;-67
2023/09/21 00:42:41;;;;;;;1.70;0.90;;;;;;;17.71;73.31;98458.84;337149;28;5462;-66
2023/09/21 00:42:53;;;;;;;1.85;0.90;;;;;;;17.70;73.39;98460.59;335231;28;17979;-66
2023/09/21 00:43:10;;;;;;;1.95;0.95;;;;;;;17.69;73.50;98458.13;337234;28;4602;-66
2023/09/21 00:43:25;;;;;;;1.48;1.08;;;;;;;17.67;73.38;98457.41;338101;28;17723;-66
2023/09/21 00:43:37;;;;;;;7.50;1.10;;;;;;;17.67;73.51;98454.78;335084;28;17751;-66
2023/09/21 00:43:49;;;;;;;7.80;1.13;;;;;;;17.67;73.42;98457.41;337493;28;4735;-66
2023/09/21 00:44:09;;;;;;;2.83;0.82;;;;;;;17.71;73.22;98459.66;337873;28;4744;-66
2023/09/21 00:44:22;;;;;;;2.70;0.85;;;;;;;17.72;73.10;98455.22;335894;28;18636;-66
2023/09/21 00:44:34;;;;;;;2.00;1.15;;;;;;;17.71;72.87;98454.41;331832;28;17661;-67
2023/09/21 00:44:46;;;;;;;2.08;1.20;;;;;;;17.73;73.09;98456.91;336660;28;17525;-66
2023/09/21 00:45:00;;;;;;;1.60;0.95;;;;;;;17.74;72.97;98463.84;333638;28;5360;-67
2023/09/21 00:45:15;;;;;;;1.27;0.90;;;;;;;17.75;72.89;98455.81;332098;28;17921;-66
2023/09/21 00:45:29;;;;;;;1.13;0.90;;;;;;;17.75;73.34;98457.63;338855;28;4563;-66
2023/09/21 00:45:46;;;;;;;1.40;0.90;;;;;;;17.74;73.17;98448.06;333628;28;17736;-66
2023/09/21 00:46:03;;;;;;;1.10;0.80;;;;;;;17.76;73.24;98461.91;335700;28;17485;-66
2023/09/21 00:46:17;;;;;;;1.67;0.77;;;;;;;17.75;73.19;98458.47;329721;28;17902;-66
2023/09/21 00:46:29;;;;;;;2.58;0.80;;;;;;;17.75;73.06;98457.63;334389;28;11784;-67
2023/09/21 00:46:44;;;;;;;2.25;0.93;;;;;;;17.74;73.10;98458.56;337268;28;4685;-66
2023/09/21 00:46:56;;;;;;;1.73;0.98;;;;;;;17.74;72.80;98458.56;334595;28;18054;-66
2023/09/21 00:47:08;;;;;;;1.58;1.00;;;;;;;17.75;73.05;98452.38;337521;28;5211;-66
2023/09/21 00:47:20;;;;;;;1.20;0.80;;;;;;;17.77;72.93;98453.09;334652;28;6779;-66
2023/09/21 00:47:32;;;;;;;1.30;0.77;;;;;;;17.77;72.98;98453.09;337479;28;5324;-66
2023/09/21 00:47:53;;;;;;;1.00;0.70;;;;;;;17.78;72.78;98452.09;334652;28;11787;-66
2023/09/21 00:48:09;;;;;;;1.00;0.80;;;;;;;17.78;72.77;98455.56;334100;28;17634;-66
2023/09/21 00:48:25;;;;;;;0.93;0.80;;;;;;;17.80;72.70;98457.25;334744;28;18239;-66
2023/09/21 00:48:42;;;;;;;1.00;0.85;;;;;;;17.78;72.81;98460.00;333862;28;17619;-66
2023/09/21 00:48:56;;;;;;;1.13;0.88;;;;;;;17.79;72.86;98456.41;335025;28;17600;-66
2023/09/21 00:49:08;;;;;;;1.50;1.00;;;;;;;17.81;72.64;98459.75;332976;28;5566;-67
2023/09/21 00:49:21;;;;;;;1.40;1.00;;;;;;;17.81;72.85;98451.88;335903;28;12072;-67
2023/09/21 00:49:35;;;;;;;0.98;0.88;;;;;;;17.80;73.10;98452.81;338383;28;4758;-66
2023/09/21 00:49:48;;;;;;;1.25;0.80;;;;;;;17.82;73.18;98450.06;333905;28;18054;-66
2023/09/21 00:50:06;;;;;;;1.50;0.80;;;;;;;17.81;73.05;98454.50;337621;28;4668;-66
2023/09/21 00:50:21;;;;;;;1.25;0.70;;;;;;;17.82;72.97;98450.91;334947;28;17843;-67
2023/09/21 00:50:33;;;;;;;1.17;0.77;;;;;;;17.82;73.07;98448.25;335535;28;17894;-66
2023/09/21 00:50:46;;;;;;;1.17;0.90;;;;;;;17.83;73.00;98452.63;335143;28;12271;-66
2023/09/21 00:50:58;;;;;;;1.25;0.90;;;;;;;17.84;72.96;98448.19;337633;28;5161;-67
2023/09/21 00:51:12;;;;;;;1.10;0.90;;;;;;;17.83;73.05;98447.34;335145;28;11972;-66
2023/09/21 00:51:24;;;;;;;1.00;0.90;;;;;;;17.82;73.17;98453.53;338658;28;5398;-66
2023/09/21 00:51:38;;;;;;;0.93;0.80;;;;;;;17.82;72.95;98452.69;335835;28;18270;-67
2023/09/21 00:51:50;;;;;;;1.13;0.75;;;;;;;17.84;72.65;98449.00;337764;28;12017;-66
2023/09/21 00:52:03;;;;;;;1.05;0.80;;;;;;;17.83;72.91;98457.88;331303;28;18049;-67
2023/09/21 00:52:15;;;;;;;1.43;0.83;;;;;;;17.82;73.06;98453.53;338573;28;5200;-66
2023/09/21 00:52:31;;;;;;;1.52;0.90;;;;;;;17.79;73.40;98445.91;335724;28;17150;-66
2023/09/21 00:52:45;;;;;;;1.20;0.90;;;;;;;17.80;73.27;98446.72;336035;28;18051;-66
2023/09/21 00:52:57;;;;;;;1.23;0.90;;;;;;;17.77;73.33;98453.09;335873;28;17371;-67
2023/09/21 00:53:15;;;;;;;1.20;0.90;;;;;;;17.78;73.45;98450.31;338200;28;5225;-67
2023/09/21 00:53:28;;;;;;;1.00;0.80;;;;;;;17.77;73.43;98453.09;336310;28;17840;-66
2023/09/21 00:53:44;;;;;;;1.30;0.90;;;;;;;17.75;73.59;98449.75;331400;28;17382;-66
2023/09/21 00:53:56;;;;;;;1.45;0.88;;;;;;;17.76;73.45;98446.13;336040;28;18190;-66
2023/09/21 00:54:09;;;;;;;1.27;0.80;;;;;;;17.77;73.32;98443.41;335079;28;17909;-66
2023/09/21 00:54:22;;;;;;;1.23;0.75;;;;;;;17.76;73.44;98452.22;337211;28;7578;-66
2023/09/21 00:54:35;;;;;;;1.42;0.93;;;;;;;17.77;73.20;98445.19;336028;28;18018;-66
2023/09/21 00:54:48;;;;;;;1.25;0.90;;;;;;;17.77;73.21;98445.19;336023;28;18152;-66
2023/09/21 00:55:01;;;;;;;1.02;0.80;;;;;;;17.77;73.35;98447.81;337963;28;5162;-66
2023/09/21 00:55:22;;;;;;;1.27;0.75;;;;;;;17.78;73.27;98449.47;338218;28;5443;-66
2023/09/21 00:55:39;;;;;;;2.45;1.08;;;;;;;17.80;72.93;98449.38;334774;28;17569;-66
2023/09/21 00:56:05;;;;;;;3.60;1.10;;;;;;;17.82;73.06;98450.06;334649;28;17907;-66
2023/09/21 00:56:18;;;;;;;2.20;0.80;;;;;;;17.82;72.87;98448.25;335743;28;17137;-66
2023/09/21 00:56:31;;;;;;;1.27;0.77;;;;;;;17.81;73.21;98454.50;336097;28;18136;-66
2023/09/21 00:56:43;;;;;;;0.95;0.77;;;;;;;17.81;72.86;98444.00;338720;28;4693;-67
2023/09/21 00:56:56;;;;;;;1.13;0.80;;;;;;;17.80;72.76;98444.94;330949;28;18338;-66
2023/09/21 00:57:11;;;;;;;1.00;0.70;;;;;;;17.81;72.94;98443.13;337509;28;5970;-66
2023/09/21 00:57:24;;;;;;;0.80;0.70;;;;;;;17.81;72.93;98449.25;333940;28;18166;-66
2023/09/21 00:57:40;;;;;;;1.10;1.00;;;;;;;17.81;72.94;98438.72;334486;28;18022;-66
2023/09/21 00:57:57;;;;;;;1.10;1.00;;;;;;;17.79;72.84;98445.91;335052;28;18813;-66
2023/09/21 00:58:09;;;;;;;1.00;0.82;;;;;;;17.79;72.80;98443.28;337506;28;17802;-66
2023/09/21 00:58:23;;;;;;;1.17;0.90;;;;;;;17.78;72.71;98438.97;335913;28;10865;-66
2023/09/21 00:58:37;;;;;;;1.38;0.98;;;;;;;17.80;72.74;98444.09;334153;28;4626;-66
2023/09/21 00:58:53;;;;;;;1.08;0.82;;;;;;;17.77;72.85;98445.19;337396;28;5497;-66
2023/09/21 00:59:06;;;;;;;2.70;0.90;;;;;;;17.77;72.93;98443.41;334913;28;18136;-66
2023/09/21 00:59:19;;;;;;;2.67;0.98;;;;;;;17.77;72.82;98445.19;337301;28;5432;-66
2023/09/21 00:59:35;;;;;;;1.42;0.98;;;;;;;17.78;72.97;98438.97;335910;28;18458;-67
2023/09/21 00:59:48;;;;;;;1.60;1.00;;;;;;;17.76;73.07;98446.97;328744;28;17648;-66
2023/09/21 01:00:00;;;;;;;1.40;0.80;;;;;;;17.76;73.20;98443.50;334659;28;4627;-66
2023/09/21 01:00:16;;;;;;;1.20;0.65;;;;;;;17.77;73.27;98438.13;336899;28;4674;-66
2023/09/21 01:00:30;;;;;;;2.05;0.68;;;;;;;17.76;73.33;98440.88;332898;29;17439;-66
2023/09/21 01:00:43;;;;;;;1.70;0.63;;;;;;;17.75;73.05;98444.50;334672;28;18280;-66
2023/09/21 01:00:56;;;;;;;0.80;0.80;;;;;;;17.75;73.08;98441.84;335231;28;11595;-67
2023/09/21 01:01:08;;;;;;;2.40;0.88;;;;;;;17.74;73.14;98442.81;338600;28;4677;-66
2023/09/21 01:01:25;;;;;;;3.30;0.90;;;;;;;17.72;72.89;98444.72;338229;28;5199;-66
2023/09/21 01:01:37;;;;;;;2.05;0.85;;;;;;;17.72;73.18;98447.34;335851;28;18871;-67
2023/09/21 01:01:50;;;;;;;0.95;0.70;;;;;;;17.69;73.46;98445.81;337889;28;4680;-66
2023/09/21 01:02:04;;;;;;;1.38;0.73;;;;;;;17.67;73.61;98441.66;336214;28;4563;-66
2023/09/21 01:02:16;;;;;;;1.73;0.80;;;;;;;17.68;73.46;98444.13;336180;28;5631;-66
2023/09/21 01:02:28;;;;;;;1.85;0.98;;;;;;;17.67;73.69;98431.97;336890;28;4657;-66
2023/09/21 01:02:42;;;;;;;1.42;0.95;;;;;;;17.69;73.33;98439.72;337541;28;4711;-66
2023/09/21 01:02:59;;;;;;;1.02;0.73;;;;;;;17.69;73.17;98445.00;334329;28;17975;-66
2023/09/21 01:03:14;;;;;;;2.17;0.85;;;;;;;17.69;73.17;98439.72;334592;28;18043;-66
2023/09/21 01:03:27;;;;;;;2.05;0.70;;;;;;;17.70;73.22;98444.84;335046;28;17995;-66
2023/09/21 01:03:40;;;;;;;0.75;0.68;;;;;;;17.69;73.21;98439.72;334229;28;16579;-66
2023/09/21 01:03:55;;;;;;;0.85;0.75;;;;;;;17.66;73.18;98440.78;334564;28;18120;-66
2023/09/21 01:04:10;;;;;;;1.05;0.80;;;;;;;17.65;73.33;98443.56;334655;28;16281;-67
2023/09/21 01:04:22;;;;;;;0.95;0.80;;;;;;;17.63;73.53;98442.84;336432;28;17054;-66
2023/09/21 01:04:35;;;;;;;1.00;0.80;;;;;;;17.62;73.39;98442.00;328669;28;18582;-66
2023/09/21 01:04:47;;;;;;;2.22;0.85;;;;;;;17.63;73.53;98442.84;336372;28;4679;-66
2023/09/21 01:05:00;;;;;;;2.40;0.90;;;;;;;17.64;73.33;98440.09;331830;28;18229;-66
2023/09/21 01:05:16;;;;;;;1.30;0.82;;;;;;;17.63;73.40;98438.44;337224;28;4665;-66
2023/09/21 01:05:29;;;;;;;1.00;0.70;;;;;;;17.64;73.45;98441.88;333963;28;18562;-66
2023/09/21 01:05:44;;;;;;;1.48;0.85;;;;;;;17.63;73.48;98440.22;333579;28;18165;-66
2023/09/21 01:05:57;;;;;;;2.22;1.00;;;;;;;17.63;73.45;98435.81;334245;28;18324;-66
2023/09/21 01:06:10;;;;;;;1.92;0.90;;;;;;;17.61;73.51;98436.91;335250;28;4955;-66
2023/09/21 01:06:25;;;;;;;1.40;0.85;;;;;;;17.60;73.62;98429.97;335650;28;18316;-66